Thetford Center, VT (05075)

4:50 AM EDT on August 26, 2016 (GMT -0400)
Stone House Farm | | Change Station

Elev 1230 ft 43.83 °N, 72.34 °W | Updated 1 second ago

Mostly Cloudy
Mostly Cloudy
69.0 °F
Feels Like 69.0 °F
N
0.0
Wind Variable Wind from South
Gusts 0.0 mph

Today
High -- | Low -- °F
--% Chance of Precip.
Yesterday
High -- | Low -- °F
Precip. -- in
Pressure 29.90 in
Visibility 8.0 miles
Clouds Mostly Cloudy 400 ft
Dew Point 28 °F
Humidity 21%
Rainfall 0.00 in
Snow Depth Not available.
6:06 AM 7:34 PM
Last Quarter, 36% visible
METAR KLEB 260753Z AUTO 18004KT 8SM BKN004 22/20 A2993 RMK AO2 SLP123 T02170200
Pressure 29.90 in
Visibility 8.0 miles
Clouds Mostly Cloudy 400 ft
Dew Point 28 °F
Humidity 21%
Rainfall 0.00 in
Snow Depth Not available.
6:06 AM 7:34 PM
Last Quarter, 36% visible
METAR KLEB 260753Z AUTO 18004KT 8SM BKN004 22/20 A2993 RMK AO2 SLP123 T02170200

10-Day Weather Forecast

Almanac

Astronomy

Aug. 26, 2016 Rise Set
Actual Time
Civil Twilight
Nautical Twilight
Astronomical Twilight
Moon
Length of Visible Light
Length of Day
Tomorrow will be .
, % of the Moon is Illuminated

Today's Extremes

State Highs State Lows

Community

WunderPhotos

Upload Photos

1,935,062 photos uploaded!

WunderBlog® & News

Nearby

Air Quality

  Air Quality AQ Index Pollutant
Not available.

Snow Depth

Station Depth Elevation

Earthquake Activity

City Distance Mag. Time & Date
Minimum magnitude displayed is 2.5.

Coastal Water Temperatures

Place Temperature

Stations

Nearby Weather Stations

Station Location Temp. Windchill Dew Point Humidity Wind Precip. Elev Updated Type
                   

Watches & Warnings

There are currently no watches in effect.